sensor_id;sensor_type;location;lat;lon;timestamp;P1;durP1;ratioP1;P2;durP2;ratioP2
52126;SDS011;38120;53.176;6.614;2023-04-10T00:00:15;36.45;;;23.65;;
52126;SDS011;38120;53.176;6.614;2023-04-10T00:02:41;38.45;;;26.42;;
52126;SDS011;38120;53.176;6.614;2023-04-10T00:05:26;38.42;;;26.90;;
52126;SDS011;38120;53.176;6.614;2023-04-10T00:07:51;33.25;;;24.02;;
52126;SDS011;38120;53.176;6.614;2023-04-10T00:10:17;36.53;;;25.73;;
52126;SDS011;38120;53.176;6.614;2023-04-10T00:12:43;44.45;;;28.02;;
52126;SDS011;38120;53.176;6.614;2023-04-10T00:15:10;38.90;;;26.83;;
52126;SDS011;38120;53.176;6.614;2023-04-10T00:17:36;35.80;;;26.90;;
52126;SDS011;38120;53.176;6.614;2023-04-10T00:20:01;37.17;;;26.73;;
52126;SDS011;38120;53.176;6.614;2023-04-10T00:22:29;37.55;;;27.58;;
52126;SDS011;38120;53.176;6.614;2023-04-10T00:24:54;45.33;;;28.60;;
52126;SDS011;38120;53.176;6.614;2023-04-10T00:27:20;40.03;;;26.13;;
52126;SDS011;38120;53.176;6.614;2023-04-10T00:29:46;39.23;;;26.60;;
52126;SDS011;38120;53.176;6.614;2023-04-10T00:32:12;40.33;;;28.17;;
52126;SDS011;38120;53.176;6.614;2023-04-10T00:35:05;43.70;;;28.30;;
52126;SDS011;38120;53.176;6.614;2023-04-10T00:37:32;39.88;;;28.60;;
52126;SDS011;38120;53.176;6.614;2023-04-10T00:39:57;47.03;;;29.63;;
52126;SDS011;38120;53.176;6.614;2023-04-10T00:42:23;46.43;;;30.50;;
52126;SDS011;38120;53.176;6.614;2023-04-10T00:44:49;46.20;;;29.77;;
52126;SDS011;38120;53.176;6.614;2023-04-10T00:47:23;43.50;;;30.38;;
52126;SDS011;38120;53.176;6.614;2023-04-10T00:49:49;47.60;;;29.98;;
52126;SDS011;38120;53.176;6.614;2023-04-10T00:52:15;48.03;;;31.95;;
52126;SDS011;38120;53.176;6.614;2023-04-10T00:54:41;48.08;;;32.08;;
52126;SDS011;38120;53.176;6.614;2023-04-10T00:57:07;42.43;;;30.37;;
52126;SDS011;38120;53.176;6.614;2023-04-10T00:59:33;39.38;;;28.25;;
52126;SDS011;38120;53.176;6.614;2023-04-10T01:01:59;41.10;;;30.55;;
52126;SDS011;38120;53.176;6.614;2023-04-10T01:04:25;45.37;;;31.50;;
52126;SDS011;38120;53.176;6.614;2023-04-10T01:06:57;43.05;;;31.17;;
52126;SDS011;38120;53.176;6.614;2023-04-10T01:09:52;46.60;;;31.92;;
52126;SDS011;38120;53.176;6.614;2023-04-10T01:15:04;45.45;;;33.00;;
52126;SDS011;38120;53.176;6.614;2023-04-10T01:20:47;52.80;;;32.70;;
52126;SDS011;38120;53.176;6.614;2023-04-10T01:34:16;56.22;;;34.90;;
52126;SDS011;38120;53.176;6.614;2023-04-10T01:36:50;52.95;;;35.60;;
52126;SDS011;38120;53.176;6.614;2023-04-10T01:39:23;56.00;;;38.53;;
52126;SDS011;38120;53.176;6.614;2023-04-10T01:41:52;51.33;;;35.30;;
52126;SDS011;38120;53.176;6.614;2023-04-10T01:44:21;54.05;;;36.63;;
52126;SDS011;38120;53.176;6.614;2023-04-10T01:46:53;62.85;;;40.05;;
52126;SDS011;38120;53.176;6.614;2023-04-10T01:49:25;58.75;;;38.72;;
52126;SDS011;38120;53.176;6.614;2023-04-10T01:51:52;56.97;;;39.33;;
52126;SDS011;38120;53.176;6.614;2023-04-10T01:54:24;54.70;;;38.28;;
52126;SDS011;38120;53.176;6.614;2023-04-10T01:56:51;55.63;;;38.55;;
52126;SDS011;38120;53.176;6.614;2023-04-10T01:59:17;54.22;;;38.53;;
52126;SDS011;38120;53.176;6.614;2023-04-10T02:01:43;52.65;;;37.70;;
52126;SDS011;38120;53.176;6.614;2023-04-10T02:04:09;58.10;;;40.67;;
52126;SDS011;38120;53.176;6.614;2023-04-10T02:06:38;55.37;;;38.07;;
52126;SDS011;38120;53.176;6.614;2023-04-10T02:09:14;57.33;;;40.05;;
52126;SDS011;38120;53.176;6.614;2023-04-10T02:12:03;59.97;;;40.03;;
52126;SDS011;38120;53.176;6.614;2023-04-10T02:14:31;54.22;;;39.30;;
52126;SDS011;38120;53.176;6.614;2023-04-10T02:17:00;62.40;;;42.75;;
52126;SDS011;38120;53.176;6.614;2023-04-10T02:19:27;53.60;;;39.00;;
52126;SDS011;38120;53.176;6.614;2023-04-10T02:21:55;58.08;;;39.75;;
52126;SDS011;38120;53.176;6.614;2023-04-10T02:24:23;58.22;;;38.92;;
52126;SDS011;38120;53.176;6.614;2023-04-10T02:26:49;58.47;;;39.47;;
52126;SDS011;38120;53.176;6.614;2023-04-10T02:29:16;54.70;;;39.10;;
52126;SDS011;38120;53.176;6.614;2023-04-10T02:34:11;55.63;;;40.08;;
52126;SDS011;38120;53.176;6.614;2023-04-10T02:36:43;57.42;;;41.28;;
52126;SDS011;38120;53.176;6.614;2023-04-10T02:39:08;56.03;;;38.70;;
52126;SDS011;38120;53.176;6.614;2023-04-10T02:41:34;56.63;;;38.33;;
52126;SDS011;38120;53.176;6.614;2023-04-10T02:44:00;64.35;;;39.25;;
52126;SDS011;38120;53.176;6.614;2023-04-10T02:46:25;51.73;;;39.17;;
52126;SDS011;38120;53.176;6.614;2023-04-10T02:48:51;57.53;;;41.27;;
52126;SDS011;38120;53.176;6.614;2023-04-10T02:51:17;60.78;;;40.85;;
52126;SDS011;38120;53.176;6.614;2023-04-10T02:53:43;59.67;;;39.20;;
52126;SDS011;38120;53.176;6.614;2023-04-10T02:56:09;56.15;;;39.55;;
52126;SDS011;38120;53.176;6.614;2023-04-10T02:58:36;54.92;;;37.97;;
52126;SDS011;38120;53.176;6.614;2023-04-10T03:01:04;57.38;;;38.85;;
52126;SDS011;38120;53.176;6.614;2023-04-10T03:03:31;55.65;;;36.47;;
52126;SDS011;38120;53.176;6.614;2023-04-10T03:05:57;58.90;;;40.17;;
52126;SDS011;38120;53.176;6.614;2023-04-10T03:08:22;51.07;;;36.43;;
52126;SDS011;38120;53.176;6.614;2023-04-10T03:10:48;53.50;;;37.60;;
52126;SDS011;38120;53.176;6.614;2023-04-10T03:13:16;51.33;;;38.13;;
52126;SDS011;38120;53.176;6.614;2023-04-10T03:15:41;58.37;;;39.07;;
52126;SDS011;38120;53.176;6.614;2023-04-10T03:18:10;50.22;;;36.35;;
52126;SDS011;38120;53.176;6.614;2023-04-10T03:20:36;57.30;;;40.30;;
52126;SDS011;38120;53.176;6.614;2023-04-10T03:23:03;51.25;;;38.72;;
52126;SDS011;38120;53.176;6.614;2023-04-10T03:25:34;50.60;;;36.22;;
52126;SDS011;38120;53.176;6.614;2023-04-10T03:28:01;56.60;;;38.60;;
52126;SDS011;38120;53.176;6.614;2023-04-10T03:30:26;56.63;;;38.53;;
52126;SDS011;38120;53.176;6.614;2023-04-10T03:32:52;55.77;;;39.13;;
52126;SDS011;38120;53.176;6.614;2023-04-10T03:35:23;54.30;;;37.92;;
52126;SDS011;38120;53.176;6.614;2023-04-10T03:37:48;52.43;;;38.90;;
52126;SDS011;38120;53.176;6.614;2023-04-10T03:40:14;57.20;;;41.07;;
52126;SDS011;38120;53.176;6.614;2023-04-10T03:42:40;60.55;;;43.00;;
52126;SDS011;38120;53.176;6.614;2023-04-10T03:45:08;58.60;;;41.00;;
52126;SDS011;38120;53.176;6.614;2023-04-10T03:50:00;63.67;;;42.78;;
52126;SDS011;38120;53.176;6.614;2023-04-10T03:52:26;65.47;;;43.53;;
52126;SDS011;38120;53.176;6.614;2023-04-10T03:54:55;59.67;;;42.50;;
52126;SDS011;38120;53.176;6.614;2023-04-10T03:57:20;62.42;;;42.50;;
52126;SDS011;38120;53.176;6.614;2023-04-10T03:59:46;57.60;;;41.83;;
52126;SDS011;38120;53.176;6.614;2023-04-10T04:02:12;60.30;;;42.00;;
52126;SDS011;38120;53.176;6.614;2023-04-10T04:04:38;64.60;;;42.87;;
52126;SDS011;38120;53.176;6.614;2023-04-10T04:07:04;58.92;;;41.28;;
52126;SDS011;38120;53.176;6.614;2023-04-10T04:09:33;62.55;;;40.97;;
52126;SDS011;38120;53.176;6.614;2023-04-10T04:11:58;60.10;;;42.67;;
52126;SDS011;38120;53.176;6.614;2023-04-10T04:14:24;58.93;;;39.83;;
52126;SDS011;38120;53.176;6.614;2023-04-10T04:16:50;59.57;;;41.40;;
52126;SDS011;38120;53.176;6.614;2023-04-10T04:19:15;57.63;;;41.17;;
52126;SDS011;38120;53.176;6.614;2023-04-10T04:21:41;59.37;;;41.50;;
52126;SDS011;38120;53.176;6.614;2023-04-10T04:24:07;58.67;;;41.13;;
52126;SDS011;38120;53.176;6.614;2023-04-10T04:26:32;65.37;;;41.27;;
52126;SDS011;38120;53.176;6.614;2023-04-10T04:28:58;56.10;;;39.53;;
52126;SDS011;38120;53.176;6.614;2023-04-10T04:31:24;58.83;;;38.85;;
52126;SDS011;38120;53.176;6.614;2023-04-10T04:33:56;54.88;;;40.17;;
52126;SDS011;38120;53.176;6.614;2023-04-10T04:36:24;55.47;;;39.25;;
52126;SDS011;38120;53.176;6.614;2023-04-10T04:38:53;55.42;;;40.42;;
52126;SDS011;38120;53.176;6.614;2023-04-10T04:41:19;54.92;;;40.50;;
52126;SDS011;38120;53.176;6.614;2023-04-10T04:43:45;54.63;;;39.87;;
52126;SDS011;38120;53.176;6.614;2023-04-10T04:46:11;54.28;;;41.35;;
52126;SDS011;38120;53.176;6.614;2023-04-10T04:48:37;57.67;;;40.65;;
52126;SDS011;38120;53.176;6.614;2023-04-10T04:51:05;59.10;;;40.73;;
52126;SDS011;38120;53.176;6.614;2023-04-10T04:53:31;59.65;;;40.53;;
52126;SDS011;38120;53.176;6.614;2023-04-10T04:55:56;58.47;;;39.87;;
52126;SDS011;38120;53.176;6.614;2023-04-10T04:58:22;55.33;;;40.77;;
52126;SDS011;38120;53.176;6.614;2023-04-10T05:00:50;54.95;;;39.28;;
52126;SDS011;38120;53.176;6.614;2023-04-10T05:03:16;58.55;;;40.20;;
52126;SDS011;38120;53.176;6.614;2023-04-10T05:05:42;56.50;;;41.53;;
52126;SDS011;38120;53.176;6.614;2023-04-10T05:08:08;56.53;;;40.92;;
52126;SDS011;38120;53.176;6.614;2023-04-10T05:10:34;57.22;;;40.13;;
52126;SDS011;38120;53.176;6.614;2023-04-10T05:13:03;59.33;;;40.72;;
52126;SDS011;38120;53.176;6.614;2023-04-10T05:15:29;59.37;;;42.50;;
52126;SDS011;38120;53.176;6.614;2023-04-10T05:17:54;56.33;;;40.80;;
52126;SDS011;38120;53.176;6.614;2023-04-10T05:20:44;53.30;;;39.58;;
52126;SDS011;38120;53.176;6.614;2023-04-10T05:23:11;59.10;;;38.75;;
52126;SDS011;38120;53.176;6.614;2023-04-10T05:25:37;54.88;;;39.70;;
52126;SDS011;38120;53.176;6.614;2023-04-10T05:28:02;53.70;;;39.00;;
52126;SDS011;38120;53.176;6.614;2023-04-10T05:30:28;51.20;;;38.93;;
52126;SDS011;38120;53.176;6.614;2023-04-10T05:32:54;59.50;;;39.60;;
52126;SDS011;38120;53.176;6.614;2023-04-10T05:35:20;57.90;;;40.78;;
52126;SDS011;38120;53.176;6.614;2023-04-10T05:37:45;53.57;;;39.10;;
52126;SDS011;38120;53.176;6.614;2023-04-10T05:40:11;55.13;;;38.70;;
52126;SDS011;38120;53.176;6.614;2023-04-10T05:42:37;58.80;;;41.20;;
52126;SDS011;38120;53.176;6.614;2023-04-10T05:45:02;58.90;;;41.23;;
52126;SDS011;38120;53.176;6.614;2023-04-10T05:47:28;58.35;;;41.13;;
52126;SDS011;38120;53.176;6.614;2023-04-10T05:49:54;56.33;;;37.17;;
52126;SDS011;38120;53.176;6.614;2023-04-10T05:52:20;57.00;;;39.05;;
52126;SDS011;38120;53.176;6.614;2023-04-10T05:54:46;52.70;;;37.50;;
52126;SDS011;38120;53.176;6.614;2023-04-10T05:57:11;57.20;;;37.63;;
52126;SDS011;38120;53.176;6.614;2023-04-10T05:59:37;51.67;;;38.00;;
52126;SDS011;38120;53.176;6.614;2023-04-10T06:02:03;55.33;;;37.10;;
52126;SDS011;38120;53.176;6.614;2023-04-10T06:04:31;48.80;;;34.80;;
52126;SDS011;38120;53.176;6.614;2023-04-10T06:06:56;58.17;;;38.07;;
52126;SDS011;38120;53.176;6.614;2023-04-10T06:09:22;53.40;;;37.83;;
52126;SDS011;38120;53.176;6.614;2023-04-10T06:11:48;50.63;;;38.57;;
52126;SDS011;38120;53.176;6.614;2023-04-10T06:14:13;54.60;;;38.83;;
52126;SDS011;38120;53.176;6.614;2023-04-10T06:16:42;59.45;;;40.15;;
52126;SDS011;38120;53.176;6.614;2023-04-10T06:19:07;56.57;;;40.00;;
52126;SDS011;38120;53.176;6.614;2023-04-10T06:21:33;59.43;;;40.47;;
52126;SDS011;38120;53.176;6.614;2023-04-10T06:23:59;52.25;;;38.08;;
52126;SDS011;38120;53.176;6.614;2023-04-10T06:26:32;56.80;;;37.90;;
52126;SDS011;38120;53.176;6.614;2023-04-10T06:28:58;53.23;;;36.30;;
52126;SDS011;38120;53.176;6.614;2023-04-10T06:31:26;43.90;;;33.65;;
52126;SDS011;38120;53.176;6.614;2023-04-10T06:33:52;49.83;;;33.47;;
52126;SDS011;38120;53.176;6.614;2023-04-10T06:36:28;45.20;;;32.78;;
52126;SDS011;38120;53.176;6.614;2023-04-10T06:38:54;50.03;;;32.13;;
52126;SDS011;38120;53.176;6.614;2023-04-10T06:41:20;44.40;;;32.20;;
52126;SDS011;38120;53.176;6.614;2023-04-10T06:43:45;44.40;;;32.27;;
52126;SDS011;38120;53.176;6.614;2023-04-10T06:46:11;44.17;;;31.98;;
52126;SDS011;38120;53.176;6.614;2023-04-10T06:48:37;46.35;;;34.63;;
52126;SDS011;38120;53.176;6.614;2023-04-10T06:51:03;41.57;;;30.23;;
52126;SDS011;38120;53.176;6.614;2023-04-10T06:53:29;44.10;;;32.35;;
52126;SDS011;38120;53.176;6.614;2023-04-10T06:55:55;50.13;;;34.20;;
52126;SDS011;38120;53.176;6.614;2023-04-10T06:58:21;44.22;;;30.42;;
52126;SDS011;38120;53.176;6.614;2023-04-10T07:00:48;43.25;;;31.00;;
52126;SDS011;38120;53.176;6.614;2023-04-10T07:03:14;48.20;;;31.73;;
52126;SDS011;38120;53.176;6.614;2023-04-10T07:05:40;44.60;;;30.77;;
52126;SDS011;38120;53.176;6.614;2023-04-10T07:08:06;43.70;;;31.67;;
52126;SDS011;38120;53.176;6.614;2023-04-10T07:10:34;45.42;;;32.15;;
52126;SDS011;38120;53.176;6.614;2023-04-10T07:13:00;43.10;;;29.65;;
52126;SDS011;38120;53.176;6.614;2023-04-10T07:15:26;46.33;;;32.08;;
52126;SDS011;38120;53.176;6.614;2023-04-10T07:17:52;46.10;;;32.50;;
52126;SDS011;38120;53.176;6.614;2023-04-10T07:20:18;42.58;;;30.35;;
52126;SDS011;38120;53.176;6.614;2023-04-10T07:22:49;46.15;;;31.30;;
52126;SDS011;38120;53.176;6.614;2023-04-10T07:25:15;42.37;;;31.07;;
52126;SDS011;38120;53.176;6.614;2023-04-10T07:27:42;39.58;;;29.05;;
52126;SDS011;38120;53.176;6.614;2023-04-10T07:30:27;38.75;;;28.60;;
52126;SDS011;38120;53.176;6.614;2023-04-10T07:32:53;40.67;;;30.73;;
52126;SDS011;38120;53.176;6.614;2023-04-10T07:35:18;42.97;;;31.03;;
52126;SDS011;38120;53.176;6.614;2023-04-10T07:37:44;41.92;;;29.17;;
52126;SDS011;38120;53.176;6.614;2023-04-10T07:40:14;46.22;;;30.40;;
52126;SDS011;38120;53.176;6.614;2023-04-10T07:42:40;40.63;;;28.65;;
52126;SDS011;38120;53.176;6.614;2023-04-10T07:45:05;39.70;;;29.60;;
52126;SDS011;38120;53.176;6.614;2023-04-10T07:47:32;44.13;;;29.50;;
52126;SDS011;38120;53.176;6.614;2023-04-10T07:49:57;43.73;;;28.60;;
52126;SDS011;38120;53.176;6.614;2023-04-10T07:52:23;38.90;;;27.90;;
52126;SDS011;38120;53.176;6.614;2023-04-10T07:54:49;38.40;;;27.85;;
52126;SDS011;38120;53.176;6.614;2023-04-10T07:57:15;44.00;;;29.67;;
52126;SDS011;38120;53.176;6.614;2023-04-10T07:59:44;40.45;;;28.85;;
52126;SDS011;38120;53.176;6.614;2023-04-10T08:02:10;35.83;;;26.67;;
52126;SDS011;38120;53.176;6.614;2023-04-10T08:04:36;43.63;;;25.45;;
52126;SDS011;38120;53.176;6.614;2023-04-10T08:07:01;36.83;;;24.07;;
52126;SDS011;38120;53.176;6.614;2023-04-10T08:09:27;33.85;;;24.90;;
52126;SDS011;38120;53.176;6.614;2023-04-10T08:11:53;34.47;;;24.03;;
52126;SDS011;38120;53.176;6.614;2023-04-10T08:14:20;35.95;;;24.83;;
52126;SDS011;38120;53.176;6.614;2023-04-10T08:16:46;35.93;;;23.77;;
52126;SDS011;38120;53.176;6.614;2023-04-10T08:19:11;35.00;;;24.73;;
52126;SDS011;38120;53.176;6.614;2023-04-10T08:21:37;32.17;;;24.03;;
52126;SDS011;38120;53.176;6.614;2023-04-10T08:24:03;31.90;;;23.37;;
52126;SDS011;38120;53.176;6.614;2023-04-10T08:26:29;33.40;;;25.45;;
52126;SDS011;38120;53.176;6.614;2023-04-10T08:28:55;37.03;;;23.58;;
52126;SDS011;38120;53.176;6.614;2023-04-10T08:31:22;32.60;;;22.77;;
52126;SDS011;38120;53.176;6.614;2023-04-10T08:33:49;33.95;;;24.30;;
52126;SDS011;38120;53.176;6.614;2023-04-10T08:36:16;33.13;;;23.52;;
52126;SDS011;38120;53.176;6.614;2023-04-10T08:38:45;34.85;;;20.98;;
52126;SDS011;38120;53.176;6.614;2023-04-10T08:41:12;37.17;;;24.45;;
52126;SDS011;38120;53.176;6.614;2023-04-10T08:43:39;35.05;;;23.80;;
52126;SDS011;38120;53.176;6.614;2023-04-10T08:46:06;32.35;;;21.38;;
52126;SDS011;38120;53.176;6.614;2023-04-10T08:48:38;33.03;;;22.17;;
52126;SDS011;38120;53.176;6.614;2023-04-10T08:51:17;30.48;;;22.02;;
52126;SDS011;38120;53.176;6.614;2023-04-10T08:53:50;34.42;;;22.33;;
52126;SDS011;38120;53.176;6.614;2023-04-10T08:56:24;32.55;;;22.58;;
52126;SDS011;38120;53.176;6.614;2023-04-10T08:58:50;31.92;;;23.23;;
52126;SDS011;38120;53.176;6.614;2023-04-10T09:01:27;31.70;;;21.75;;
52126;SDS011;38120;53.176;6.614;2023-04-10T09:03:58;28.50;;;21.25;;
52126;SDS011;38120;53.176;6.614;2023-04-10T09:06:24;31.30;;;20.08;;
52126;SDS011;38120;53.176;6.614;2023-04-10T09:08:50;28.17;;;19.58;;
52126;SDS011;38120;53.176;6.614;2023-04-10T09:11:41;27.92;;;18.88;;
52126;SDS011;38120;53.176;6.614;2023-04-10T09:19:30;29.02;;;18.52;;
52126;SDS011;38120;53.176;6.614;2023-04-10T09:21:58;26.90;;;17.70;;
52126;SDS011;38120;53.176;6.614;2023-04-10T09:24:26;28.60;;;17.23;;
52126;SDS011;38120;53.176;6.614;2023-04-10T09:26:52;25.45;;;18.08;;
52126;SDS011;38120;53.176;6.614;2023-04-10T09:29:18;23.80;;;17.08;;
52126;SDS011;38120;53.176;6.614;2023-04-10T09:31:44;24.35;;;16.33;;
52126;SDS011;38120;53.176;6.614;2023-04-10T09:36:41;21.15;;;15.13;;
52126;SDS011;38120;53.176;6.614;2023-04-10T09:39:09;24.75;;;15.75;;
52126;SDS011;38120;53.176;6.614;2023-04-10T09:41:49;23.00;;;14.75;;
52126;SDS011;38120;53.176;6.614;2023-04-10T09:44:18;20.38;;;14.95;;
52126;SDS011;38120;53.176;6.614;2023-04-10T09:49:47;21.35;;;14.48;;
52126;SDS011;38120;53.176;6.614;2023-04-10T09:52:27;21.50;;;15.02;;
52126;SDS011;38120;53.176;6.614;2023-04-10T09:54:55;21.90;;;14.15;;
52126;SDS011;38120;53.176;6.614;2023-04-10T09:57:23;17.73;;;13.23;;
52126;SDS011;38120;53.176;6.614;2023-04-10T09:59:53;19.77;;;14.18;;
52126;SDS011;38120;53.176;6.614;2023-04-10T10:02:22;19.00;;;13.40;;
52126;SDS011;38120;53.176;6.614;2023-04-10T10:04:49;18.08;;;13.63;;
52126;SDS011;38120;53.176;6.614;2023-04-10T10:07:17;22.58;;;13.27;;
52126;SDS011;38120;53.176;6.614;2023-04-10T10:09:44;19.02;;;13.57;;
52126;SDS011;38120;53.176;6.614;2023-04-10T10:12:12;17.15;;;12.48;;
52126;SDS011;38120;53.176;6.614;2023-04-10T10:17:26;24.50;;;14.30;;
52126;SDS011;38120;53.176;6.614;2023-04-10T10:22:31;20.75;;;12.80;;
52126;SDS011;38120;53.176;6.614;2023-04-10T10:24:57;19.13;;;13.25;;
52126;SDS011;38120;53.176;6.614;2023-04-10T10:27:25;20.20;;;13.90;;
52126;SDS011;38120;53.176;6.614;2023-04-10T10:29:52;20.20;;;13.93;;
52126;SDS011;38120;53.176;6.614;2023-04-10T10:32:20;19.05;;;13.23;;
52126;SDS011;38120;53.176;6.614;2023-04-10T10:34:50;20.30;;;13.13;;
52126;SDS011;38120;53.176;6.614;2023-04-10T10:37:17;20.00;;;14.38;;
52126;SDS011;38120;53.176;6.614;2023-04-10T10:40:06;19.73;;;13.70;;
52126;SDS011;38120;53.176;6.614;2023-04-10T10:46:01;16.80;;;11.25;;
52126;SDS011;38120;53.176;6.614;2023-04-10T10:48:31;16.20;;;9.90;;
52126;SDS011;38120;53.176;6.614;2023-04-10T10:50:57;16.45;;;9.38;;
52126;SDS011;38120;53.176;6.614;2023-04-10T10:53:32;15.90;;;9.55;;
52126;SDS011;38120;53.176;6.614;2023-04-10T10:56:32;13.82;;;8.73;;
52126;SDS011;38120;53.176;6.614;2023-04-10T10:59:02;16.25;;;8.98;;
52126;SDS011;38120;53.176;6.614;2023-04-10T11:01:28;16.80;;;9.32;;
52126;SDS011;38120;53.176;6.614;2023-04-10T11:03:59;12.75;;;8.68;;
52126;SDS011;38120;53.176;6.614;2023-04-10T11:06:49;12.45;;;8.15;;
52126;SDS011;38120;53.176;6.614;2023-04-10T11:12:13;12.45;;;8.85;;
52126;SDS011;38120;53.176;6.614;2023-04-10T11:14:44;11.32;;;7.55;;
52126;SDS011;38120;53.176;6.614;2023-04-10T11:20:18;10.93;;;7.55;;
52126;SDS011;38120;53.176;6.614;2023-04-10T11:28:36;9.45;;;6.57;;
52126;SDS011;38120;53.176;6.614;2023-04-10T11:31:21;10.30;;;6.43;;
52126;SDS011;38120;53.176;6.614;2023-04-10T11:33:52;14.88;;;7.03;;
52126;SDS011;38120;53.176;6.614;2023-04-10T11:36:25;8.85;;;6.47;;
52126;SDS011;38120;53.176;6.614;2023-04-10T11:39:01;10.48;;;6.10;;
52126;SDS011;38120;53.176;6.614;2023-04-10T11:41:38;8.93;;;5.78;;
52126;SDS011;38120;53.176;6.614;2023-04-10T11:44:09;11.68;;;6.43;;
52126;SDS011;38120;53.176;6.614;2023-04-10T11:46:39;11.77;;;6.05;;
52126;SDS011;38120;53.176;6.614;2023-04-10T11:49:16;8.82;;;5.85;;
52126;SDS011;38120;53.176;6.614;2023-04-10T11:51:47;9.10;;;6.00;;
52126;SDS011;38120;53.176;6.614;2023-04-10T11:54:21;10.05;;;5.68;;
52126;SDS011;38120;53.176;6.614;2023-04-10T11:59:31;9.10;;;5.65;;
52126;SDS011;38120;53.176;6.614;2023-04-10T12:04:33;8.88;;;5.40;;
52126;SDS011;38120;53.176;6.614;2023-04-10T12:06:59;9.00;;;5.65;;
52126;SDS011;38120;53.176;6.614;2023-04-10T12:09:25;9.60;;;5.00;;
52126;SDS011;38120;53.176;6.614;2023-04-10T12:11:52;8.35;;;4.60;;
52126;SDS011;38120;53.176;6.614;2023-04-10T12:14:27;7.53;;;3.97;;
52126;SDS011;38120;53.176;6.614;2023-04-10T12:17:01;8.80;;;5.30;;
52126;SDS011;38120;53.176;6.614;2023-04-10T12:19:28;6.38;;;4.15;;
52126;SDS011;38120;53.176;6.614;2023-04-10T12:21:55;7.60;;;4.47;;
52126;SDS011;38120;53.176;6.614;2023-04-10T12:27:24;6.72;;;4.07;;
52126;SDS011;38120;53.176;6.614;2023-04-10T12:29:52;7.07;;;4.50;;
52126;SDS011;38120;53.176;6.614;2023-04-10T12:32:20;5.97;;;3.92;;
52126;SDS011;38120;53.176;6.614;2023-04-10T12:34:53;6.55;;;4.10;;
52126;SDS011;38120;53.176;6.614;2023-04-10T12:37:45;6.68;;;3.78;;
52126;SDS011;38120;53.176;6.614;2023-04-10T12:40:12;7.10;;;4.60;;
52126;SDS011;38120;53.176;6.614;2023-04-10T12:42:41;6.88;;;4.05;;
52126;SDS011;38120;53.176;6.614;2023-04-10T12:45:07;6.40;;;3.83;;
52126;SDS011;38120;53.176;6.614;2023-04-10T12:47:46;7.90;;;4.20;;
52126;SDS011;38120;53.176;6.614;2023-04-10T12:50:23;7.53;;;4.00;;
52126;SDS011;38120;53.176;6.614;2023-04-10T12:53:02;8.55;;;4.18;;
52126;SDS011;38120;53.176;6.614;2023-04-10T12:55:33;6.55;;;3.90;;
52126;SDS011;38120;53.176;6.614;2023-04-10T12:58:13;9.55;;;3.72;;
52126;SDS011;38120;53.176;6.614;2023-04-10T13:00:52;6.13;;;3.97;;
52126;SDS011;38120;53.176;6.614;2023-04-10T13:03:37;7.32;;;4.03;;
52126;SDS011;38120;53.176;6.614;2023-04-10T13:06:06;8.63;;;3.85;;
52126;SDS011;38120;53.176;6.614;2023-04-10T13:08:33;8.82;;;4.32;;
52126;SDS011;38120;53.176;6.614;2023-04-10T13:10:59;7.95;;;3.92;;
52126;SDS011;38120;53.176;6.614;2023-04-10T13:13:28;7.38;;;4.53;;
52126;SDS011;38120;53.176;6.614;2023-04-10T13:16:00;6.70;;;3.53;;
52126;SDS011;38120;53.176;6.614;2023-04-10T13:18:25;7.32;;;3.88;;
52126;SDS011;38120;53.176;6.614;2023-04-10T13:20:51;7.70;;;4.32;;
52126;SDS011;38120;53.176;6.614;2023-04-10T13:23:17;6.57;;;4.05;;
52126;SDS011;38120;53.176;6.614;2023-04-10T13:25:43;7.22;;;4.57;;
52126;SDS011;38120;53.176;6.614;2023-04-10T13:28:08;7.30;;;3.83;;
52126;SDS011;38120;53.176;6.614;2023-04-10T13:33:05;7.07;;;4.07;;
52126;SDS011;38120;53.176;6.614;2023-04-10T13:35:31;5.68;;;3.75;;
52126;SDS011;38120;53.176;6.614;2023-04-10T13:37:57;7.40;;;4.97;;
52126;SDS011;38120;53.176;6.614;2023-04-10T13:40:24;8.25;;;4.55;;
52126;SDS011;38120;53.176;6.614;2023-04-10T13:42:50;9.18;;;4.45;;
52126;SDS011;38120;53.176;6.614;2023-04-10T13:45:15;6.72;;;4.47;;
52126;SDS011;38120;53.176;6.614;2023-04-10T13:47:41;6.72;;;4.47;;
52126;SDS011;38120;53.176;6.614;2023-04-10T13:50:07;7.10;;;4.38;;
52126;SDS011;38120;53.176;6.614;2023-04-10T13:52:33;8.30;;;4.93;;
52126;SDS011;38120;53.176;6.614;2023-04-10T13:54:59;7.13;;;4.55;;
52126;SDS011;38120;53.176;6.614;2023-04-10T13:57:25;7.43;;;4.35;;
52126;SDS011;38120;53.176;6.614;2023-04-10T13:59:50;7.18;;;4.10;;
52126;SDS011;38120;53.176;6.614;2023-04-10T14:02:17;6.45;;;4.10;;
52126;SDS011;38120;53.176;6.614;2023-04-10T14:04:42;9.32;;;4.22;;
52126;SDS011;38120;53.176;6.614;2023-04-10T14:07:10;9.30;;;4.88;;
52126;SDS011;38120;53.176;6.614;2023-04-10T14:09:38;10.23;;;4.40;;
52126;SDS011;38120;53.176;6.614;2023-04-10T14:12:04;7.65;;;4.75;;
52126;SDS011;38120;53.176;6.614;2023-04-10T14:14:32;7.50;;;4.68;;
52126;SDS011;38120;53.176;6.614;2023-04-10T14:16:58;6.53;;;3.95;;
52126;SDS011;38120;53.176;6.614;2023-04-10T14:19:29;8.82;;;4.65;;
52126;SDS011;38120;53.176;6.614;2023-04-10T14:21:55;9.38;;;4.90;;
52126;SDS011;38120;53.176;6.614;2023-04-10T14:24:21;6.55;;;5.28;;
52126;SDS011;38120;53.176;6.614;2023-04-10T14:26:47;6.88;;;4.40;;
52126;SDS011;38120;53.176;6.614;2023-04-10T14:29:13;8.73;;;4.38;;
52126;SDS011;38120;53.176;6.614;2023-04-10T14:31:38;8.07;;;4.22;;
52126;SDS011;38120;53.176;6.614;2023-04-10T14:34:04;6.45;;;4.15;;
52126;SDS011;38120;53.176;6.614;2023-04-10T14:36:30;9.57;;;4.80;;
52126;SDS011;38120;53.176;6.614;2023-04-10T14:38:58;7.75;;;4.13;;
52126;SDS011;38120;53.176;6.614;2023-04-10T14:41:24;8.23;;;4.50;;
52126;SDS011;38120;53.176;6.614;2023-04-10T14:43:49;6.75;;;4.50;;
52126;SDS011;38120;53.176;6.614;2023-04-10T14:46:15;6.50;;;4.10;;
52126;SDS011;38120;53.176;6.614;2023-04-10T14:48:43;6.28;;;4.18;;
52126;SDS011;38120;53.176;6.614;2023-04-10T14:51:09;5.80;;;3.83;;
52126;SDS011;38120;53.176;6.614;2023-04-10T14:53:37;9.05;;;4.13;;
52126;SDS011;38120;53.176;6.614;2023-04-10T14:58:39;6.88;;;4.43;;
52126;SDS011;38120;53.176;6.614;2023-04-10T15:01:09;11.10;;;3.97;;
52126;SDS011;38120;53.176;6.614;2023-04-10T15:03:35;6.72;;;4.40;;
52126;SDS011;38120;53.176;6.614;2023-04-10T15:06:01;6.75;;;3.97;;
52126;SDS011;38120;53.176;6.614;2023-04-10T15:08:27;6.22;;;3.78;;
52126;SDS011;38120;53.176;6.614;2023-04-10T15:10:53;6.20;;;3.70;;
52126;SDS011;38120;53.176;6.614;2023-04-10T15:13:20;5.95;;;4.10;;
52126;SDS011;38120;53.176;6.614;2023-04-10T15:18:14;8.32;;;4.07;;
52126;SDS011;38120;53.176;6.614;2023-04-10T15:20:41;5.72;;;3.42;;
52126;SDS011;38120;53.176;6.614;2023-04-10T15:23:07;7.03;;;4.40;;
52126;SDS011;38120;53.176;6.614;2023-04-10T15:25:33;10.10;;;4.47;;
52126;SDS011;38120;53.176;6.614;2023-04-10T15:27:58;9.82;;;4.05;;
52126;SDS011;38120;53.176;6.614;2023-04-10T15:30:24;7.53;;;4.05;;
52126;SDS011;38120;53.176;6.614;2023-04-10T15:32:50;7.68;;;4.90;;
52126;SDS011;38120;53.176;6.614;2023-04-10T15:35:16;7.45;;;4.07;;
52126;SDS011;38120;53.176;6.614;2023-04-10T15:37:59;7.28;;;4.53;;
52126;SDS011;38120;53.176;6.614;2023-04-10T15:40:25;9.65;;;4.80;;
52126;SDS011;38120;53.176;6.614;2023-04-10T15:43:04;8.15;;;4.40;;